sensor_id;sensor_type;location;lat;lon;timestamp;P1;durP1;ratioP1;P2;durP2;ratioP2
47251;SDS011;32991;51.374;11.586;2023-04-24T00:00:35;1.67;;;0.90;;
47251;SDS011;32991;51.374;11.586;2023-04-24T00:03:02;1.38;;;0.90;;
47251;SDS011;32991;51.374;11.586;2023-04-24T00:05:29;1.20;;;1.10;;
47251;SDS011;32991;51.374;11.586;2023-04-24T00:07:55;3.20;;;1.08;;
47251;SDS011;32991;51.374;11.586;2023-04-24T00:10:22;2.88;;;1.10;;
47251;SDS011;32991;51.374;11.586;2023-04-24T00:12:48;2.45;;;1.30;;
47251;SDS011;32991;51.374;11.586;2023-04-24T00:15:15;3.45;;;1.20;;
47251;SDS011;32991;51.374;11.586;2023-04-24T00:17:41;1.55;;;0.80;;
47251;SDS011;32991;51.374;11.586;2023-04-24T00:20:08;5.20;;;1.10;;
47251;SDS011;32991;51.374;11.586;2023-04-24T00:22:36;1.17;;;0.80;;
47251;SDS011;32991;51.374;11.586;2023-04-24T00:25:03;0.98;;;0.90;;
47251;SDS011;32991;51.374;11.586;2023-04-24T00:27:29;3.33;;;0.80;;
47251;SDS011;32991;51.374;11.586;2023-04-24T00:29:56;3.53;;;0.90;;
47251;SDS011;32991;51.374;11.586;2023-04-24T00:32:23;1.95;;;1.00;;
47251;SDS011;32991;51.374;11.586;2023-04-24T00:34:49;1.10;;;1.00;;
47251;SDS011;32991;51.374;11.586;2023-04-24T00:37:16;2.40;;;1.00;;
47251;SDS011;32991;51.374;11.586;2023-04-24T00:39:43;1.20;;;1.10;;
47251;SDS011;32991;51.374;11.586;2023-04-24T00:42:10;2.03;;;1.10;;
47251;SDS011;32991;51.374;11.586;2023-04-24T00:44:37;1.27;;;1.05;;
47251;SDS011;32991;51.374;11.586;2023-04-24T00:47:03;2.75;;;1.20;;
47251;SDS011;32991;51.374;11.586;2023-04-24T00:49:30;3.10;;;1.17;;
47251;SDS011;32991;51.374;11.586;2023-04-24T00:51:57;1.20;;;1.10;;
47251;SDS011;32991;51.374;11.586;2023-04-24T00:54:25;3.03;;;0.95;;
47251;SDS011;32991;51.374;11.586;2023-04-24T00:56:52;3.08;;;1.25;;
47251;SDS011;32991;51.374;11.586;2023-04-24T00:59:18;2.08;;;1.08;;
47251;SDS011;32991;51.374;11.586;2023-04-24T01:01:45;1.98;;;1.10;;
47251;SDS011;32991;51.374;11.586;2023-04-24T01:04:12;1.27;;;1.00;;
47251;SDS011;32991;51.374;11.586;2023-04-24T01:06:39;3.33;;;1.25;;
47251;SDS011;32991;51.374;11.586;2023-04-24T01:09:07;6.30;;;3.63;;
47251;SDS011;32991;51.374;11.586;2023-04-24T01:11:36;12.13;;;7.78;;
47251;SDS011;32991;51.374;11.586;2023-04-24T01:14:03;7.78;;;6.72;;
47251;SDS011;32991;51.374;11.586;2023-04-24T01:16:30;12.95;;;9.77;;
47251;SDS011;32991;51.374;11.586;2023-04-24T01:18:57;4.25;;;3.53;;
47251;SDS011;32991;51.374;11.586;2023-04-24T01:21:23;6.15;;;5.10;;
47251;SDS011;32991;51.374;11.586;2023-04-24T01:23:53;5.97;;;4.53;;
47251;SDS011;32991;51.374;11.586;2023-04-24T01:26:21;19.45;;;16.45;;
47251;SDS011;32991;51.374;11.586;2023-04-24T01:28:48;17.73;;;14.77;;
47251;SDS011;32991;51.374;11.586;2023-04-24T01:31:15;14.10;;;11.77;;
47251;SDS011;32991;51.374;11.586;2023-04-24T01:33:42;2.33;;;1.58;;
47251;SDS011;32991;51.374;11.586;2023-04-24T01:36:10;1.90;;;1.20;;
47251;SDS011;32991;51.374;11.586;2023-04-24T01:38:37;1.50;;;1.30;;
47251;SDS011;32991;51.374;11.586;2023-04-24T01:41:04;2.00;;;1.30;;
47251;SDS011;32991;51.374;11.586;2023-04-24T01:43:30;2.00;;;1.15;;
47251;SDS011;32991;51.374;11.586;2023-04-24T01:45:57;1.35;;;1.10;;
47251;SDS011;32991;51.374;11.586;2023-04-24T01:48:24;2.92;;;1.20;;
47251;SDS011;32991;51.374;11.586;2023-04-24T01:50:51;2.95;;;2.75;;
47251;SDS011;32991;51.374;11.586;2023-04-24T01:53:17;1.35;;;1.20;;
47251;SDS011;32991;51.374;11.586;2023-04-24T01:55:44;2.35;;;1.80;;
47251;SDS011;32991;51.374;11.586;2023-04-24T01:58:12;2.60;;;2.05;;
47251;SDS011;32991;51.374;11.586;2023-04-24T02:00:38;2.40;;;1.30;;
47251;SDS011;32991;51.374;11.586;2023-04-24T02:03:05;1.95;;;1.23;;
47251;SDS011;32991;51.374;11.586;2023-04-24T02:05:32;2.55;;;1.17;;
47251;SDS011;32991;51.374;11.586;2023-04-24T02:07:58;2.30;;;1.35;;
47251;SDS011;32991;51.374;11.586;2023-04-24T02:10:25;1.30;;;1.20;;
47251;SDS011;32991;51.374;11.586;2023-04-24T02:12:51;1.20;;;1.10;;
47251;SDS011;32991;51.374;11.586;2023-04-24T02:15:18;1.85;;;1.20;;
47251;SDS011;32991;51.374;11.586;2023-04-24T02:17:44;1.95;;;1.15;;
47251;SDS011;32991;51.374;11.586;2023-04-24T02:20:11;2.55;;;1.40;;
47251;SDS011;32991;51.374;11.586;2023-04-24T02:22:37;6.13;;;1.48;;
47251;SDS011;32991;51.374;11.586;2023-04-24T02:25:04;3.45;;;1.42;;
47251;SDS011;32991;51.374;11.586;2023-04-24T02:27:31;1.40;;;1.30;;
47251;SDS011;32991;51.374;11.586;2023-04-24T02:29:57;3.08;;;1.27;;
47251;SDS011;32991;51.374;11.586;2023-04-24T02:32:24;1.48;;;1.33;;
47251;SDS011;32991;51.374;11.586;2023-04-24T02:34:50;2.33;;;1.48;;
47251;SDS011;32991;51.374;11.586;2023-04-24T02:37:17;2.00;;;1.30;;
47251;SDS011;32991;51.374;11.586;2023-04-24T02:39:43;2.88;;;1.40;;
47251;SDS011;32991;51.374;11.586;2023-04-24T02:42:10;2.22;;;1.23;;
47251;SDS011;32991;51.374;11.586;2023-04-24T02:44:37;2.17;;;1.50;;
47251;SDS011;32991;51.374;11.586;2023-04-24T02:47:03;1.73;;;1.30;;
47251;SDS011;32991;51.374;11.586;2023-04-24T02:49:30;1.35;;;1.02;;
47251;SDS011;32991;51.374;11.586;2023-04-24T02:51:56;1.95;;;1.27;;
47251;SDS011;32991;51.374;11.586;2023-04-24T02:54:23;3.35;;;1.20;;
47251;SDS011;32991;51.374;11.586;2023-04-24T02:56:49;1.83;;;1.25;;
47251;SDS011;32991;51.374;11.586;2023-04-24T02:59:16;1.23;;;1.13;;
47251;SDS011;32991;51.374;11.586;2023-04-24T03:01:43;1.50;;;1.40;;
47251;SDS011;32991;51.374;11.586;2023-04-24T03:04:09;3.25;;;1.75;;
47251;SDS011;32991;51.374;11.586;2023-04-24T03:06:36;7.28;;;3.78;;
47251;SDS011;32991;51.374;11.586;2023-04-24T03:09:03;13.10;;;7.70;;
47251;SDS011;32991;51.374;11.586;2023-04-24T03:11:30;24.02;;;10.80;;
47251;SDS011;32991;51.374;11.586;2023-04-24T03:13:57;6.03;;;3.33;;
47251;SDS011;32991;51.374;11.586;2023-04-24T03:16:23;1.95;;;1.80;;
47251;SDS011;32991;51.374;11.586;2023-04-24T03:18:53;15.98;;;14.38;;
47251;SDS011;32991;51.374;11.586;2023-04-24T03:21:22;9.63;;;8.73;;
47251;SDS011;32991;51.374;11.586;2023-04-24T03:23:49;5.85;;;5.35;;
47251;SDS011;32991;51.374;11.586;2023-04-24T03:26:15;7.90;;;7.20;;
47251;SDS011;32991;51.374;11.586;2023-04-24T03:28:54;3.47;;;3.17;;
47251;SDS011;32991;51.374;11.586;2023-04-24T03:31:22;2.30;;;2.10;;
47251;SDS011;32991;51.374;11.586;2023-04-24T03:33:49;3.20;;;2.90;;
47251;SDS011;32991;51.374;11.586;2023-04-24T03:36:17;5.00;;;2.22;;
47251;SDS011;32991;51.374;11.586;2023-04-24T03:38:45;2.25;;;2.05;;
47251;SDS011;32991;51.374;11.586;2023-04-24T03:41:30;2.60;;;1.80;;
47251;SDS011;32991;51.374;11.586;2023-04-24T03:44:08;3.15;;;1.90;;
47251;SDS011;32991;51.374;11.586;2023-04-24T03:46:35;2.25;;;1.77;;
47251;SDS011;32991;51.374;11.586;2023-04-24T03:49:02;2.67;;;1.85;;
47251;SDS011;32991;51.374;11.586;2023-04-24T03:51:35;2.20;;;1.83;;
47251;SDS011;32991;51.374;11.586;2023-04-24T03:54:10;1.70;;;1.60;;
47251;SDS011;32991;51.374;11.586;2023-04-24T03:56:39;2.40;;;1.70;;
47251;SDS011;32991;51.374;11.586;2023-04-24T03:59:05;4.57;;;2.25;;
47251;SDS011;32991;51.374;11.586;2023-04-24T04:01:34;2.88;;;1.80;;
47251;SDS011;32991;51.374;11.586;2023-04-24T04:04:11;2.70;;;1.95;;
47251;SDS011;32991;51.374;11.586;2023-04-24T04:06:40;2.28;;;1.70;;
47251;SDS011;32991;51.374;11.586;2023-04-24T04:09:07;1.65;;;1.55;;
47251;SDS011;32991;51.374;11.586;2023-04-24T04:11:35;1.88;;;1.70;;
47251;SDS011;32991;51.374;11.586;2023-04-24T04:14:01;2.20;;;1.83;;
47251;SDS011;32991;51.374;11.586;2023-04-24T04:16:29;4.05;;;2.03;;
47251;SDS011;32991;51.374;11.586;2023-04-24T04:19:01;2.67;;;1.63;;
47251;SDS011;32991;51.374;11.586;2023-04-24T04:21:29;3.13;;;2.00;;
47251;SDS011;32991;51.374;11.586;2023-04-24T04:24:08;2.70;;;1.83;;
47251;SDS011;32991;51.374;11.586;2023-04-24T04:26:40;4.43;;;1.60;;
47251;SDS011;32991;51.374;11.586;2023-04-24T04:29:08;2.42;;;1.52;;
47251;SDS011;32991;51.374;11.586;2023-04-24T04:31:40;1.90;;;1.80;;
47251;SDS011;32991;51.374;11.586;2023-04-24T04:34:11;2.25;;;2.05;;
47251;SDS011;32991;51.374;11.586;2023-04-24T04:36:40;2.22;;;1.90;;
47251;SDS011;32991;51.374;11.586;2023-04-24T04:39:20;2.05;;;1.83;;
47251;SDS011;32991;51.374;11.586;2023-04-24T04:41:54;2.00;;;1.80;;
47251;SDS011;32991;51.374;11.586;2023-04-24T04:44:24;3.75;;;2.05;;
47251;SDS011;32991;51.374;11.586;2023-04-24T04:46:54;2.00;;;1.80;;
47251;SDS011;32991;51.374;11.586;2023-04-24T04:49:28;4.68;;;1.98;;
47251;SDS011;32991;51.374;11.586;2023-04-24T04:51:55;1.65;;;1.55;;
47251;SDS011;32991;51.374;11.586;2023-04-24T04:54:24;3.30;;;1.70;;
47251;SDS011;32991;51.374;11.586;2023-04-24T04:56:51;1.90;;;1.80;;
47251;SDS011;32991;51.374;11.586;2023-04-24T04:59:18;2.75;;;1.95;;
47251;SDS011;32991;51.374;11.586;2023-04-24T05:01:46;3.75;;;2.00;;
47251;SDS011;32991;51.374;11.586;2023-04-24T05:04:14;2.42;;;2.13;;
47251;SDS011;32991;51.374;11.586;2023-04-24T05:06:42;2.03;;;1.77;;
47251;SDS011;32991;51.374;11.586;2023-04-24T05:09:09;2.10;;;1.80;;
47251;SDS011;32991;51.374;11.586;2023-04-24T05:11:48;2.80;;;1.60;;
47251;SDS011;32991;51.374;11.586;2023-04-24T05:14:15;2.00;;;1.80;;
47251;SDS011;32991;51.374;11.586;2023-04-24T05:16:44;2.08;;;1.70;;
47251;SDS011;32991;51.374;11.586;2023-04-24T05:19:12;4.53;;;1.67;;
47251;SDS011;32991;51.374;11.586;2023-04-24T05:21:40;1.85;;;1.75;;
47251;SDS011;32991;51.374;11.586;2023-04-24T05:24:08;2.28;;;1.65;;
47251;SDS011;32991;51.374;11.586;2023-04-24T05:26:44;2.95;;;1.70;;
47251;SDS011;32991;51.374;11.586;2023-04-24T05:29:13;2.85;;;1.75;;
47251;SDS011;32991;51.374;11.586;2023-04-24T05:31:41;1.88;;;1.73;;
47251;SDS011;32991;51.374;11.586;2023-04-24T05:34:07;1.77;;;1.60;;
47251;SDS011;32991;51.374;11.586;2023-04-24T05:36:38;1.65;;;1.52;;
47251;SDS011;32991;51.374;11.586;2023-04-24T05:39:04;2.28;;;1.63;;
47251;SDS011;32991;51.374;11.586;2023-04-24T05:41:33;2.40;;;1.60;;
47251;SDS011;32991;51.374;11.586;2023-04-24T05:44:00;2.35;;;1.50;;
47251;SDS011;32991;51.374;11.586;2023-04-24T05:46:27;2.05;;;1.60;;
47251;SDS011;32991;51.374;11.586;2023-04-24T05:48:55;2.47;;;1.40;;
47251;SDS011;32991;51.374;11.586;2023-04-24T05:51:21;1.98;;;1.77;;
47251;SDS011;32991;51.374;11.586;2023-04-24T05:53:48;3.38;;;1.70;;
47251;SDS011;32991;51.374;11.586;2023-04-24T05:56:15;1.58;;;1.45;;
47251;SDS011;32991;51.374;11.586;2023-04-24T05:58:41;1.52;;;1.40;;
47251;SDS011;32991;51.374;11.586;2023-04-24T06:01:08;1.90;;;1.50;;
47251;SDS011;32991;51.374;11.586;2023-04-24T06:03:37;2.28;;;1.60;;
47251;SDS011;32991;51.374;11.586;2023-04-24T06:06:05;1.50;;;1.40;;
47251;SDS011;32991;51.374;11.586;2023-04-24T06:08:34;1.92;;;1.38;;
47251;SDS011;32991;51.374;11.586;2023-04-24T06:11:01;1.85;;;1.45;;
47251;SDS011;32991;51.374;11.586;2023-04-24T06:13:30;2.78;;;1.75;;
47251;SDS011;32991;51.374;11.586;2023-04-24T06:16:29;1.50;;;1.38;;
47251;SDS011;32991;51.374;11.586;2023-04-24T06:19:01;1.70;;;1.40;;
47251;SDS011;32991;51.374;11.586;2023-04-24T06:21:28;3.35;;;1.42;;
47251;SDS011;32991;51.374;11.586;2023-04-24T06:23:55;1.73;;;1.30;;
47251;SDS011;32991;51.374;11.586;2023-04-24T06:26:22;2.72;;;1.35;;
47251;SDS011;32991;51.374;11.586;2023-04-24T06:28:51;2.30;;;1.30;;
47251;SDS011;32991;51.374;11.586;2023-04-24T06:31:18;3.72;;;1.40;;
47251;SDS011;32991;51.374;11.586;2023-04-24T06:33:45;1.98;;;1.25;;
47251;SDS011;32991;51.374;11.586;2023-04-24T06:36:12;1.70;;;1.30;;
47251;SDS011;32991;51.374;11.586;2023-04-24T06:38:38;1.30;;;1.00;;
47251;SDS011;32991;51.374;11.586;2023-04-24T06:41:05;1.85;;;1.38;;
47251;SDS011;32991;51.374;11.586;2023-04-24T06:43:31;2.97;;;1.20;;
47251;SDS011;32991;51.374;11.586;2023-04-24T06:45:58;1.30;;;1.20;;
47251;SDS011;32991;51.374;11.586;2023-04-24T06:48:27;1.30;;;1.20;;
47251;SDS011;32991;51.374;11.586;2023-04-24T06:50:53;3.05;;;1.10;;
47251;SDS011;32991;51.374;11.586;2023-04-24T06:53:20;4.68;;;1.40;;
47251;SDS011;32991;51.374;11.586;2023-04-24T06:55:46;2.35;;;1.00;;
47251;SDS011;32991;51.374;11.586;2023-04-24T06:58:13;2.40;;;1.35;;
47251;SDS011;32991;51.374;11.586;2023-04-24T07:00:40;1.20;;;1.00;;
47251;SDS011;32991;51.374;11.586;2023-04-24T07:03:07;1.85;;;1.15;;
47251;SDS011;32991;51.374;11.586;2023-04-24T07:05:34;1.67;;;1.10;;
47251;SDS011;32991;51.374;11.586;2023-04-24T07:08:01;2.20;;;1.27;;
47251;SDS011;32991;51.374;11.586;2023-04-24T07:10:28;2.80;;;1.13;;
47251;SDS011;32991;51.374;11.586;2023-04-24T07:12:55;5.32;;;1.38;;
47251;SDS011;32991;51.374;11.586;2023-04-24T07:15:22;1.42;;;1.00;;
47251;SDS011;32991;51.374;11.586;2023-04-24T07:17:49;1.95;;;1.00;;
47251;SDS011;32991;51.374;11.586;2023-04-24T07:20:16;3.53;;;1.25;;
47251;SDS011;32991;51.374;11.586;2023-04-24T07:22:42;1.77;;;1.17;;
47251;SDS011;32991;51.374;11.586;2023-04-24T07:25:09;2.85;;;1.30;;
47251;SDS011;32991;51.374;11.586;2023-04-24T07:27:36;1.75;;;0.80;;
47251;SDS011;32991;51.374;11.586;2023-04-24T07:30:03;1.20;;;1.10;;
47251;SDS011;32991;51.374;11.586;2023-04-24T07:32:30;2.58;;;1.02;;
47251;SDS011;32991;51.374;11.586;2023-04-24T07:34:56;2.83;;;1.20;;
47251;SDS011;32991;51.374;11.586;2023-04-24T07:37:23;1.40;;;1.02;;
47251;SDS011;32991;51.374;11.586;2023-04-24T07:39:50;2.55;;;1.50;;
47251;SDS011;32991;51.374;11.586;2023-04-24T07:42:16;2.28;;;1.10;;
47251;SDS011;32991;51.374;11.586;2023-04-24T07:44:43;1.45;;;1.00;;
47251;SDS011;32991;51.374;11.586;2023-04-24T07:47:09;3.15;;;1.00;;
47251;SDS011;32991;51.374;11.586;2023-04-24T07:49:36;2.22;;;1.17;;
47251;SDS011;32991;51.374;11.586;2023-04-24T07:52:03;0.80;;;0.80;;
47251;SDS011;32991;51.374;11.586;2023-04-24T07:54:29;1.10;;;1.00;;
47251;SDS011;32991;51.374;11.586;2023-04-24T07:56:56;2.63;;;1.00;;
47251;SDS011;32991;51.374;11.586;2023-04-24T07:59:22;0.88;;;0.88;;
47251;SDS011;32991;51.374;11.586;2023-04-24T08:01:49;2.47;;;1.70;;
47251;SDS011;32991;51.374;11.586;2023-04-24T08:04:16;0.80;;;0.70;;
47251;SDS011;32991;51.374;11.586;2023-04-24T08:06:44;1.52;;;1.00;;
47251;SDS011;32991;51.374;11.586;2023-04-24T08:09:11;3.00;;;1.30;;
47251;SDS011;32991;51.374;11.586;2023-04-24T08:11:37;1.23;;;1.08;;
47251;SDS011;32991;51.374;11.586;2023-04-24T08:14:04;1.02;;;0.90;;
47251;SDS011;32991;51.374;11.586;2023-04-24T08:16:30;4.53;;;1.13;;
47251;SDS011;32991;51.374;11.586;2023-04-24T08:18:59;0.98;;;0.93;;
47251;SDS011;32991;51.374;11.586;2023-04-24T08:21:25;1.58;;;0.90;;
47251;SDS011;32991;51.374;11.586;2023-04-24T08:23:53;1.98;;;0.80;;
47251;SDS011;32991;51.374;11.586;2023-04-24T08:26:19;1.50;;;0.98;;
47251;SDS011;32991;51.374;11.586;2023-04-24T08:28:46;1.95;;;1.10;;
47251;SDS011;32991;51.374;11.586;2023-04-24T08:31:12;1.88;;;0.90;;
47251;SDS011;32991;51.374;11.586;2023-04-24T08:33:39;0.90;;;0.80;;
47251;SDS011;32991;51.374;11.586;2023-04-24T08:36:07;1.20;;;1.10;;
47251;SDS011;32991;51.374;11.586;2023-04-24T08:38:34;1.92;;;1.27;;
47251;SDS011;32991;51.374;11.586;2023-04-24T08:41:01;2.58;;;1.27;;
47251;SDS011;32991;51.374;11.586;2023-04-24T08:43:27;1.23;;;1.10;;
47251;SDS011;32991;51.374;11.586;2023-04-24T08:45:55;3.47;;;1.23;;
47251;SDS011;32991;51.374;11.586;2023-04-24T08:48:23;1.38;;;0.90;;
47251;SDS011;32991;51.374;11.586;2023-04-24T08:50:57;4.43;;;1.50;;
47251;SDS011;32991;51.374;11.586;2023-04-24T08:53:24;3.17;;;1.70;;
47251;SDS011;32991;51.374;11.586;2023-04-24T08:55:51;2.03;;;1.13;;
47251;SDS011;32991;51.374;11.586;2023-04-24T08:58:20;4.85;;;1.30;;
47251;SDS011;32991;51.374;11.586;2023-04-24T09:00:46;2.53;;;1.60;;
47251;SDS011;32991;51.374;11.586;2023-04-24T09:03:15;1.80;;;0.98;;
47251;SDS011;32991;51.374;11.586;2023-04-24T09:05:43;1.17;;;1.08;;
47251;SDS011;32991;51.374;11.586;2023-04-24T09:08:12;2.10;;;1.02;;
47251;SDS011;32991;51.374;11.586;2023-04-24T09:10:40;2.90;;;1.42;;
47251;SDS011;32991;51.374;11.586;2023-04-24T09:13:06;4.07;;;1.48;;
47251;SDS011;32991;51.374;11.586;2023-04-24T09:15:35;2.80;;;1.08;;
47251;SDS011;32991;51.374;11.586;2023-04-24T09:18:02;0.82;;;0.82;;
47251;SDS011;32991;51.374;11.586;2023-04-24T09:20:29;2.60;;;1.40;;
47251;SDS011;32991;51.374;11.586;2023-04-24T09:22:56;2.03;;;1.23;;
47251;SDS011;32991;51.374;11.586;2023-04-24T09:25:33;1.45;;;1.20;;
47251;SDS011;32991;51.374;11.586;2023-04-24T09:28:02;2.40;;;1.10;;
47251;SDS011;32991;51.374;11.586;2023-04-24T09:30:29;1.13;;;0.95;;
47251;SDS011;32991;51.374;11.586;2023-04-24T09:33:12;1.25;;;1.13;;
47251;SDS011;32991;51.374;11.586;2023-04-24T09:35:49;3.05;;;1.27;;
47251;SDS011;32991;51.374;11.586;2023-04-24T09:38:17;3.15;;;1.73;;
47251;SDS011;32991;51.374;11.586;2023-04-24T09:40:43;3.38;;;1.20;;
47251;SDS011;32991;51.374;11.586;2023-04-24T09:43:10;2.03;;;1.30;;
47251;SDS011;32991;51.374;11.586;2023-04-24T09:45:40;1.58;;;1.17;;
47251;SDS011;32991;51.374;11.586;2023-04-24T09:48:10;5.95;;;1.55;;
47251;SDS011;32991;51.374;11.586;2023-04-24T09:50:37;4.00;;;1.40;;
47251;SDS011;32991;51.374;11.586;2023-04-24T09:53:04;2.92;;;1.40;;
47251;SDS011;32991;51.374;11.586;2023-04-24T09:55:32;1.90;;;1.55;;
47251;SDS011;32991;51.374;11.586;2023-04-24T09:57:59;2.38;;;1.40;;
47251;SDS011;32991;51.374;11.586;2023-04-24T10:00:31;2.22;;;1.52;;
47251;SDS011;32991;51.374;11.586;2023-04-24T10:02:59;2.50;;;1.20;;
47251;SDS011;32991;51.374;11.586;2023-04-24T10:05:28;3.53;;;1.20;;
47251;SDS011;32991;51.374;11.586;2023-04-24T10:07:56;1.50;;;1.25;;
47251;SDS011;32991;51.374;11.586;2023-04-24T10:10:27;2.17;;;1.40;;
47251;SDS011;32991;51.374;11.586;2023-04-24T10:12:54;2.00;;;1.10;;
47251;SDS011;32991;51.374;11.586;2023-04-24T10:15:21;1.30;;;1.20;;
47251;SDS011;32991;51.374;11.586;2023-04-24T10:17:48;1.30;;;1.20;;
47251;SDS011;32991;51.374;11.586;2023-04-24T10:20:23;1.13;;;1.00;;
47251;SDS011;32991;51.374;11.586;2023-04-24T10:22:51;1.30;;;1.10;;
47251;SDS011;32991;51.374;11.586;2023-04-24T10:25:23;3.25;;;1.30;;
47251;SDS011;32991;51.374;11.586;2023-04-24T10:27:51;2.10;;;1.50;;
47251;SDS011;32991;51.374;11.586;2023-04-24T10:30:19;2.28;;;1.15;;
47251;SDS011;32991;51.374;11.586;2023-04-24T10:32:46;3.10;;;1.40;;
47251;SDS011;32991;51.374;11.586;2023-04-24T10:35:13;1.42;;;1.20;;
47251;SDS011;32991;51.374;11.586;2023-04-24T10:37:48;2.08;;;0.90;;
47251;SDS011;32991;51.374;11.586;2023-04-24T10:40:24;1.70;;;1.20;;
47251;SDS011;32991;51.374;11.586;2023-04-24T10:42:52;1.33;;;1.10;;
47251;SDS011;32991;51.374;11.586;2023-04-24T10:45:24;2.22;;;1.17;;
47251;SDS011;32991;51.374;11.586;2023-04-24T10:47:51;1.48;;;1.10;;
47251;SDS011;32991;51.374;11.586;2023-04-24T10:50:19;1.33;;;1.10;;
47251;SDS011;32991;51.374;11.586;2023-04-24T10:52:46;1.85;;;1.20;;
47251;SDS011;32991;51.374;11.586;2023-04-24T10:55:13;2.80;;;1.50;;
47251;SDS011;32991;51.374;11.586;2023-04-24T10:58:02;1.48;;;1.38;;
47251;SDS011;32991;51.374;11.586;2023-04-24T11:00:29;3.72;;;1.85;;
47251;SDS011;32991;51.374;11.586;2023-04-24T11:02:56;1.90;;;1.25;;
47251;SDS011;32991;51.374;11.586;2023-04-24T11:05:49;1.70;;;1.55;;
47251;SDS011;32991;51.374;11.586;2023-04-24T11:08:21;1.60;;;1.38;;
47251;SDS011;32991;51.374;11.586;2023-04-24T11:10:59;1.90;;;1.40;;
47251;SDS011;32991;51.374;11.586;2023-04-24T11:19:06;1.60;;;1.50;;
47251;SDS011;32991;51.374;11.586;2023-04-24T11:21:54;2.45;;;1.60;;
47251;SDS011;32991;51.374;11.586;2023-04-24T11:27:38;1.67;;;1.30;;
47251;SDS011;32991;51.374;11.586;2023-04-24T11:34:49;2.47;;;1.50;;
47251;SDS011;32991;51.374;11.586;2023-04-24T11:37:16;1.88;;;1.58;;
47251;SDS011;32991;51.374;11.586;2023-04-24T11:39:43;3.22;;;1.60;;
47251;SDS011;32991;51.374;11.586;2023-04-24T11:42:10;1.38;;;1.27;;
47251;SDS011;32991;51.374;11.586;2023-04-24T11:44:36;1.58;;;1.42;;
47251;SDS011;32991;51.374;11.586;2023-04-24T11:47:04;1.65;;;1.40;;
47251;SDS011;32991;51.374;11.586;2023-04-24T11:49:32;2.08;;;1.40;;
47251;SDS011;32991;51.374;11.586;2023-04-24T11:52:02;3.97;;;1.90;;
47251;SDS011;32991;51.374;11.586;2023-04-24T11:54:28;1.40;;;1.30;;
47251;SDS011;32991;51.374;11.586;2023-04-24T11:56:55;1.23;;;1.20;;
47251;SDS011;32991;51.374;11.586;2023-04-24T11:59:23;1.58;;;1.48;;
47251;SDS011;32991;51.374;11.586;2023-04-24T12:01:49;1.50;;;1.40;;
47251;SDS011;32991;51.374;11.586;2023-04-24T12:04:17;2.13;;;1.63;;
47251;SDS011;32991;51.374;11.586;2023-04-24T12:07:02;1.83;;;1.60;;
47251;SDS011;32991;51.374;11.586;2023-04-24T12:09:39;1.33;;;1.23;;
47251;SDS011;32991;51.374;11.586;2023-04-24T12:12:07;1.60;;;1.50;;
47251;SDS011;32991;51.374;11.586;2023-04-24T12:14:44;1.17;;;1.08;;
47251;SDS011;32991;51.374;11.586;2023-04-24T12:17:15;3.40;;;1.58;;
47251;SDS011;32991;51.374;11.586;2023-04-24T12:19:46;4.93;;;1.50;;
47251;SDS011;32991;51.374;11.586;2023-04-24T12:22:13;2.33;;;1.48;;
47251;SDS011;32991;51.374;11.586;2023-04-24T12:24:59;4.15;;;1.80;;
47251;SDS011;32991;51.374;11.586;2023-04-24T12:27:30;1.33;;;1.23;;
47251;SDS011;32991;51.374;11.586;2023-04-24T12:29:58;5.38;;;1.60;;
47251;SDS011;32991;51.374;11.586;2023-04-24T12:32:26;3.05;;;1.30;;
47251;SDS011;32991;51.374;11.586;2023-04-24T12:34:54;2.58;;;1.17;;
47251;SDS011;32991;51.374;11.586;2023-04-24T12:37:22;1.60;;;1.50;;
47251;SDS011;32991;51.374;11.586;2023-04-24T12:40:03;2.72;;;1.40;;
47251;SDS011;32991;51.374;11.586;2023-04-24T12:45:04;1.27;;;1.17;;
47251;SDS011;32991;51.374;11.586;2023-04-24T12:47:32;1.73;;;1.45;;
47251;SDS011;32991;51.374;11.586;2023-04-24T12:49:59;1.55;;;1.20;;
47251;SDS011;32991;51.374;11.586;2023-04-24T12:52:27;2.20;;;1.67;;
47251;SDS011;32991;51.374;11.586;2023-04-24T12:54:55;2.95;;;1.30;;
47251;SDS011;32991;51.374;11.586;2023-04-24T12:57:23;1.40;;;1.30;;
47251;SDS011;32991;51.374;11.586;2023-04-24T12:59:50;1.30;;;1.10;;
47251;SDS011;32991;51.374;11.586;2023-04-24T13:02:18;2.40;;;1.40;;
47251;SDS011;32991;51.374;11.586;2023-04-24T13:04:45;1.20;;;0.95;;
47251;SDS011;32991;51.374;11.586;2023-04-24T13:07:13;2.67;;;1.00;;
47251;SDS011;32991;51.374;11.586;2023-04-24T13:09:41;1.40;;;1.30;;
47251;SDS011;32991;51.374;11.586;2023-04-24T13:12:08;1.30;;;1.30;;
47251;SDS011;32991;51.374;11.586;2023-04-24T13:14:35;2.88;;;1.30;;
47251;SDS011;32991;51.374;11.586;2023-04-24T13:17:01;6.93;;;1.33;;
47251;SDS011;32991;51.374;11.586;2023-04-24T13:19:29;1.73;;;1.42;;
47251;SDS011;32991;51.374;11.586;2023-04-24T13:21:56;1.35;;;1.25;;
47251;SDS011;32991;51.374;11.586;2023-04-24T13:24:23;2.30;;;1.45;;
47251;SDS011;32991;51.374;11.586;2023-04-24T13:26:52;1.00;;;1.00;;
47251;SDS011;32991;51.374;11.586;2023-04-24T13:29:19;1.15;;;1.00;;
47251;SDS011;32991;51.374;11.586;2023-04-24T13:31:46;1.80;;;0.85;;
47251;SDS011;32991;51.374;11.586;2023-04-24T13:34:13;3.38;;;0.85;;
47251;SDS011;32991;51.374;11.586;2023-04-24T13:36:40;1.48;;;1.00;;
47251;SDS011;32991;51.374;11.586;2023-04-24T13:39:06;1.50;;;1.05;;
47251;SDS011;32991;51.374;11.586;2023-04-24T13:41:33;1.00;;;0.90;;
47251;SDS011;32991;51.374;11.586;2023-04-24T13:44:00;1.00;;;0.90;;
47251;SDS011;32991;51.374;11.586;2023-04-24T13:46:26;0.90;;;0.90;;
47251;SDS011;32991;51.374;11.586;2023-04-24T13:48:53;0.88;;;0.70;;
47251;SDS011;32991;51.374;11.586;2023-04-24T13:51:20;1.88;;;0.60;;
47251;SDS011;32991;51.374;11.586;2023-04-24T13:53:46;0.55;;;0.52;;
47251;SDS011;32991;51.374;11.586;2023-04-24T13:56:13;0.73;;;0.68;;
47251;SDS011;32991;51.374;11.586;2023-04-24T13:58:40;0.63;;;0.63;;
47251;SDS011;32991;51.374;11.586;2023-04-24T14:01:06;1.05;;;0.80;;
47251;SDS011;32991;51.374;11.586;2023-04-24T14:03:33;2.40;;;0.90;;
47251;SDS011;32991;51.374;11.586;2023-04-24T14:06:00;0.70;;;0.70;;
47251;SDS011;32991;51.374;11.586;2023-04-24T14:08:26;0.80;;;0.70;;
47251;SDS011;32991;51.374;11.586;2023-04-24T14:10:53;0.50;;;0.50;;
47251;SDS011;32991;51.374;11.586;2023-04-24T14:13:19;2.03;;;0.50;;
47251;SDS011;32991;51.374;11.586;2023-04-24T14:15:46;0.95;;;0.68;;
47251;SDS011;32991;51.374;11.586;2023-04-24T14:18:13;1.58;;;0.55;;
47251;SDS011;32991;51.374;11.586;2023-04-24T14:20:39;0.30;;;0.30;;
47251;SDS011;32991;51.374;11.586;2023-04-24T14:23:06;0.93;;;0.32;;
47251;SDS011;32991;51.374;11.586;2023-04-24T14:25:32;0.50;;;0.50;;
47251;SDS011;32991;51.374;11.586;2023-04-24T14:27:59;0.40;;;0.40;;
47251;SDS011;32991;51.374;11.586;2023-04-24T14:30:25;0.52;;;0.45;;
47251;SDS011;32991;51.374;11.586;2023-04-24T14:32:52;1.70;;;0.40;;
47251;SDS011;32991;51.374;11.586;2023-04-24T14:35:18;0.30;;;0.30;;
47251;SDS011;32991;51.374;11.586;2023-04-24T14:37:45;0.57;;;0.40;;
47251;SDS011;32991;51.374;11.586;2023-04-24T14:40:12;0.47;;;0.40;;
47251;SDS011;32991;51.374;11.586;2023-04-24T14:42:58;0.30;;;0.30;;
47251;SDS011;32991;51.374;11.586;2023-04-24T14:45:25;0.40;;;0.40;;
47251;SDS011;32991;51.374;11.586;2023-04-24T14:47:52;0.40;;;0.40;;
47251;SDS011;32991;51.374;11.586;2023-04-24T14:50:19;1.73;;;0.40;;
47251;SDS011;32991;51.374;11.586;2023-04-24T14:52:49;0.45;;;0.35;;
47251;SDS011;32991;51.374;11.586;2023-04-24T14:55:16;0.28;;;0.28;;